createdAt,value
2022-11-08T00:00:43.829Z,100719.69
2022-11-08T00:03:13.125Z,100709.50
2022-11-08T00:05:59.405Z,100720.13
2022-11-08T00:08:45.887Z,100720.47
2022-11-08T00:11:31.901Z,100720.25
2022-11-08T00:14:00.755Z,100714.88
2022-11-08T00:16:31.609Z,100720.53
2022-11-08T00:19:00.548Z,100727.88
2022-11-08T00:21:29.639Z,100718.41
2022-11-08T00:23:58.496Z,100723.78
2022-11-08T00:26:27.336Z,100722.94
2022-11-08T00:28:56.180Z,100718.09
2022-11-08T00:31:24.903Z,100728.44
2022-11-08T00:33:55.903Z,100720.53
2022-11-08T00:36:24.935Z,100712.72
2022-11-08T00:38:53.795Z,100718.66
2022-11-08T00:41:22.650Z,100705.44
2022-11-08T00:43:51.557Z,100715.09
2022-11-08T00:46:20.330Z,100717.63
2022-11-08T00:48:49.161Z,100714.81
2022-11-08T00:51:19.545Z,100714.25
2022-11-08T00:53:48.551Z,100712.84
2022-11-08T00:56:17.330Z,100708.88
2022-11-08T00:58:46.122Z,100707.72
2022-11-08T01:01:17.680Z,100709.72
2022-11-08T01:03:47.195Z,100712.84
2022-11-08T01:06:23.045Z,100711.13
2022-11-08T01:08:52.943Z,100707.78
2022-11-08T01:11:25.851Z,100716.59
2022-11-08T01:13:58.429Z,100721.59
2022-11-08T01:16:31.504Z,100720.25
2022-11-08T01:19:02.439Z,100717.34
2022-11-08T01:21:32.857Z,100709.81
2022-11-08T01:24:01.812Z,100709.38
2022-11-08T01:26:31.989Z,100709.66
2022-11-08T01:29:01.249Z,100718.41
2022-11-08T01:31:32.887Z,100716.97
2022-11-08T01:34:02.375Z,100711.06
2022-11-08T01:36:32.635Z,100710.34
2022-11-08T01:39:01.397Z,100710.34
2022-11-08T01:41:30.253Z,100712.94
2022-11-08T01:44:00.789Z,100706.34
2022-11-08T01:46:45.802Z,100704.97
2022-11-08T01:49:35.033Z,100708.75
2022-11-08T01:52:29.001Z,100707.53
2022-11-08T01:55:06.108Z,100708.81
2022-11-08T01:57:43.503Z,100703.28
2022-11-08T02:00:14.439Z,100713.38
2022-11-08T02:02:47.091Z,100700.66
2022-11-08T02:05:28.811Z,100704.78
2022-11-08T02:08:06.786Z,100701.97
2022-11-08T02:10:39.641Z,100700.84
2022-11-08T02:13:14.949Z,100695.78
2022-11-08T02:15:44.757Z,100697.00
2022-11-08T02:18:16.242Z,100691.63
2022-11-08T02:21:00.056Z,100693.00
2022-11-08T02:23:48.262Z,100692.84
2022-11-08T02:26:19.087Z,100686.19
2022-11-08T02:28:50.314Z,100688.31
2022-11-08T02:31:21.322Z,100690.06
2022-11-08T02:33:50.394Z,100682.69
2022-11-08T02:36:22.968Z,100681.41
2022-11-08T02:38:58.541Z,100671.47
2022-11-08T02:41:27.311Z,100684.09
2022-11-08T02:43:56.154Z,100686.91
2022-11-08T02:46:25.294Z,100681.94
2022-11-08T02:48:53.952Z,100686.97
2022-11-08T02:51:22.699Z,100677.47
2022-11-08T02:53:52.864Z,100680.44
2022-11-08T02:56:21.732Z,100680.69
2022-11-08T02:58:50.643Z,100675.59
2022-11-08T03:01:19.761Z,100675.84
2022-11-08T03:03:48.673Z,100684.94
2022-11-08T03:06:17.674Z,100676.38
2022-11-08T03:08:46.442Z,100671.81
2022-11-08T03:11:16.680Z,100683.56
2022-11-08T03:13:45.493Z,100685.06
2022-11-08T03:16:14.491Z,100691.84
2022-11-08T03:18:44.117Z,100697.34
2022-11-08T03:21:12.854Z,100693.28
2022-11-08T03:23:41.755Z,100691.84
2022-11-08T03:26:10.593Z,100689.28
2022-11-08T03:28:40.775Z,100689.81
2022-11-08T03:31:09.613Z,100688.66
2022-11-08T03:33:38.422Z,100694.56
2022-11-08T03:36:07.804Z,100689.56
2022-11-08T03:38:36.619Z,100693.16
2022-11-08T03:41:05.735Z,100693.56
2022-11-08T03:43:34.640Z,100706.72
2022-11-08T03:46:04.806Z,100705.19
2022-11-08T03:48:33.650Z,100706.44
2022-11-08T03:51:02.509Z,100706.72
2022-11-08T03:53:31.265Z,100699.97
2022-11-08T03:56:01.468Z,100703.03
2022-11-08T03:58:30.525Z,100698.44
2022-11-08T04:00:59.495Z,100703.22
2022-11-08T04:03:29.690Z,100703.59
2022-11-08T04:06:00.451Z,100697.63
2022-11-08T04:08:29.870Z,100696.50
2022-11-08T04:11:20.362Z,100697.75
2022-11-08T04:14:03.212Z,100706.56
2022-11-08T04:16:33.045Z,100704.84
2022-11-08T04:19:20.815Z,100706.28
2022-11-08T04:21:52.380Z,100707.41
2022-11-08T04:24:21.855Z,100696.00
2022-11-08T04:26:50.944Z,100693.81
2022-11-08T04:29:19.778Z,100698.97
2022-11-08T04:31:48.640Z,100693.31
2022-11-08T04:34:18.957Z,100696.66
2022-11-08T04:36:48.065Z,100694.69
2022-11-08T04:39:16.833Z,100697.03
2022-11-08T04:41:45.662Z,100693.63
2022-11-08T04:44:15.787Z,100692.38
2022-11-08T04:46:44.544Z,100685.56
2022-11-08T04:49:13.761Z,100696.84
2022-11-08T04:51:44.267Z,100688.53
2022-11-08T04:54:13.061Z,100685.22
2022-11-08T04:56:42.153Z,100694.59
2022-11-08T04:59:12.478Z,100696.16
2022-11-08T05:01:41.740Z,100698.78
2022-11-08T05:04:10.602Z,100702.44
2022-11-08T05:06:39.392Z,100703.28
2022-11-08T05:09:09.661Z,100705.34
2022-11-08T05:11:38.469Z,100694.50
2022-11-08T05:14:07.373Z,100694.59
2022-11-08T05:16:36.214Z,100698.22
2022-11-08T05:19:09.223Z,100695.97
2022-11-08T05:21:58.201Z,100699.50
2022-11-08T05:24:28.593Z,100704.16
2022-11-08T05:26:57.853Z,100697.81
2022-11-08T05:29:26.644Z,100698.78
2022-11-08T05:31:55.391Z,100698.78
2022-11-08T05:34:24.328Z,100706.09
2022-11-08T05:36:53.313Z,100707.56
2022-11-08T05:39:27.210Z,100704.66
2022-11-08T05:42:01.609Z,100704.38
2022-11-08T05:44:30.449Z,100700.72
2022-11-08T05:46:59.230Z,100705.00
2022-11-08T05:49:28.057Z,100713.13
2022-11-08T05:51:57.059Z,100702.91
2022-11-08T05:54:25.958Z,100698.03
2022-11-08T05:56:54.837Z,100691.19
2022-11-08T05:59:25.274Z,100694.84
2022-11-08T06:01:54.187Z,100696.91
2022-11-08T06:04:23.167Z,100696.28
2022-11-08T06:06:52.092Z,100699.19
2022-11-08T06:09:23.516Z,100694.84
2022-11-08T06:11:52.256Z,100700.84
2022-11-08T06:14:21.123Z,100698.03
2022-11-08T06:16:51.717Z,100695.13
2022-11-08T06:19:20.818Z,100708.28
2022-11-08T06:21:49.776Z,100709.88
2022-11-08T06:24:18.800Z,100709.75
2022-11-08T06:26:47.592Z,100708.44
2022-11-08T06:29:16.835Z,100713.22
2022-11-08T06:31:45.709Z,100707.72
2022-11-08T06:34:16.203Z,100716.16
2022-11-08T06:36:45.119Z,100722.59
2022-11-08T06:39:13.966Z,100727.66
2022-11-08T06:41:43.026Z,100721.91
2022-11-08T06:44:11.831Z,100725.56
2022-11-08T06:46:40.661Z,100724.94
2022-11-08T06:49:09.638Z,100733.72
2022-11-08T06:51:39.829Z,100729.44
2022-11-08T06:54:09.818Z,100731.66
2022-11-08T06:56:39.830Z,100737.88
2022-11-08T06:59:08.616Z,100746.88
2022-11-08T07:01:39.926Z,100735.06
2022-11-08T07:04:12.360Z,100736.69
2022-11-08T07:06:42.716Z,100743.97
2022-11-08T07:09:11.785Z,100742.75
2022-11-08T07:11:40.659Z,100736.78
2022-11-08T07:14:09.722Z,100731.53
2022-11-08T07:16:38.562Z,100729.34
2022-11-08T07:19:07.844Z,100730.94
2022-11-08T07:21:36.600Z,100731.53
2022-11-08T07:24:07.460Z,100723.47
2022-11-08T07:26:36.541Z,100726.88
2022-11-08T07:29:05.411Z,100723.72
2022-11-08T07:31:34.693Z,100720.53
2022-11-08T07:34:03.617Z,100713.44
2022-11-08T07:36:32.417Z,100710.03
2022-11-08T07:39:06.305Z,100706.09
2022-11-08T07:41:37.079Z,100712.00
2022-11-08T07:44:07.260Z,100710.97
2022-11-08T07:46:36.155Z,100709.50
2022-11-08T07:49:04.971Z,100707.41
2022-11-08T07:51:33.960Z,100703.13
2022-11-08T07:54:03.316Z,100699.56
2022-11-08T07:56:32.608Z,100695.47
2022-11-08T07:59:03.265Z,100692.38
2022-11-08T08:01:32.147Z,100695.25
2022-11-08T08:04:03.469Z,100699.25
2022-11-08T08:06:32.288Z,100696.69
2022-11-08T08:09:01.257Z,100702.69
2022-11-08T08:11:33.611Z,100697.53
2022-11-08T08:39:26.390Z,100686.84
2022-11-08T08:42:01.952Z,100688.19
2022-11-08T08:45:04.887Z,100686.66
2022-11-08T08:47:35.445Z,100677.53
2022-11-08T08:50:12.447Z,100672.28
2022-11-08T08:52:42.068Z,100674.28
2022-11-08T08:55:12.404Z,100669.88
2022-11-08T08:57:47.066Z,100676.38
2022-11-08T09:03:13.319Z,100658.22
2022-11-08T09:05:48.619Z,100666.91
2022-11-08T09:08:27.758Z,100649.75
2022-11-08T09:11:06.626Z,100657.22
2022-11-08T09:13:36.428Z,100640.63
2022-11-08T09:16:10.967Z,100639.16
2022-11-08T09:18:42.198Z,100633.97
2022-11-08T09:21:14.689Z,100635.94
2022-11-08T09:23:44.627Z,100629.06
2022-11-08T09:26:15.573Z,100624.44
2022-11-08T09:28:52.075Z,100627.13
2022-11-08T09:31:21.518Z,100621.19
2022-11-08T09:33:53.130Z,100624.28
2022-11-08T09:36:22.802Z,100616.97
2022-11-08T09:38:51.995Z,100614.09
2022-11-08T09:41:58.598Z,100619.63
2022-11-08T09:45:13.362Z,100593.41
2022-11-08T09:47:49.021Z,100598.81
2022-11-08T09:50:30.050Z,100609.97
2022-11-08T09:53:16.438Z,100610.63
2022-11-08T09:55:52.007Z,100597.25
2022-11-08T09:58:36.582Z,100598.38
2022-11-08T10:01:07.194Z,100604.94
2022-11-08T10:03:39.428Z,100602.09
2022-11-08T10:07:04.253Z,100580.75
2022-11-08T10:10:16.950Z,100572.19
2022-11-08T10:12:56.637Z,100574.03
2022-11-08T10:15:43.011Z,100560.84
2022-11-08T10:18:41.239Z,100573.00
2022-11-08T10:21:31.791Z,100573.72
2022-11-08T10:24:10.745Z,100578.63
2022-11-08T10:26:46.065Z,100567.09
2022-11-08T10:29:23.558Z,100563.50
2022-11-08T10:32:16.246Z,100565.25
2022-11-08T10:34:57.011Z,100555.09
2022-11-08T10:37:32.884Z,100549.66
2022-11-08T10:40:15.894Z,100543.38
2022-11-08T10:42:52.553Z,100541.94
2022-11-08T10:45:21.435Z,100538.19
2022-11-08T10:47:57.410Z,100528.16
2022-11-08T10:50:45.791Z,100539.97
2022-11-08T10:53:23.380Z,100520.28
2022-11-08T10:56:00.568Z,100511.94
2022-11-08T10:58:48.182Z,100505.44
2022-11-08T11:01:20.760Z,100513.72
2022-11-08T11:03:55.383Z,100522.03
2022-11-08T11:06:30.611Z,100519.28
2022-11-08T11:09:03.864Z,100521.16
2022-11-08T11:11:40.972Z,100520.00
2022-11-08T11:14:22.491Z,100501.47
2022-11-08T11:17:02.301Z,100496.91
2022-11-08T11:19:34.192Z,100489.84
2022-11-08T11:22:12.329Z,100476.28
2022-11-08T11:24:56.284Z,100481.84
2022-11-08T11:27:33.250Z,100472.88
2022-11-08T11:30:31.512Z,100461.91
2022-11-08T11:33:25.968Z,100453.25
2022-11-08T11:36:10.710Z,100445.19
2022-11-08T11:38:55.341Z,100442.84
2022-11-08T11:41:44.217Z,100434.00
2022-11-08T11:44:26.798Z,100428.97
2022-11-08T11:47:04.747Z,100430.34
2022-11-08T11:49:37.177Z,100427.63
2022-11-08T11:52:19.062Z,100423.78
2022-11-08T11:58:47.467Z,100426.13
2022-11-08T12:01:50.999Z,100419.38
2022-11-08T12:09:21.671Z,100409.22
2022-11-08T12:13:09.256Z,100406.00
2022-11-08T12:16:37.376Z,100403.31
2022-11-08T12:19:50.309Z,100388.06
2022-11-08T12:23:00.804Z,100381.47
2022-11-08T12:25:50.685Z,100385.00
2022-11-08T12:33:25.292Z,100384.28
2022-11-08T12:36:26.995Z,100390.44
2022-11-08T12:39:45.068Z,100385.03
2022-11-08T12:43:35.693Z,100382.25
2022-11-08T12:46:51.881Z,100381.41
2022-11-08T12:54:14.308Z,100385.28
2022-11-08T12:57:01.527Z,100382.69
2022-11-08T12:59:40.113Z,100387.56
2022-11-08T13:02:23.842Z,100377.75
2022-11-08T13:05:17.409Z,100382.13
2022-11-08T13:07:56.358Z,100366.69
2022-11-08T13:10:48.409Z,100370.88
2022-11-08T13:13:39.905Z,100373.03
2022-11-08T13:16:16.620Z,100369.25
2022-11-08T13:18:52.370Z,100372.88
2022-11-08T13:21:46.510Z,100367.41
2022-11-08T13:24:45.420Z,100359.44
2022-11-08T13:27:38.264Z,100367.75
2022-11-08T13:30:41.606Z,100359.00
2022-11-08T13:33:30.434Z,100353.69
2022-11-08T13:36:22.678Z,100351.34
2022-11-08T13:39:14.002Z,100350.34
2022-11-08T13:42:30.115Z,100350.09
2022-11-08T13:45:27.848Z,100343.38
2022-11-08T13:48:40.657Z,100347.28
2022-11-08T13:51:35.719Z,100339.94
2022-11-08T13:54:53.904Z,100342.56
2022-11-08T13:58:02.230Z,100353.59
2022-11-08T14:00:45.508Z,100345.56
2022-11-08T14:03:58.003Z,100349.41
2022-11-08T14:06:43.247Z,100349.75
2022-11-08T14:09:33.377Z,100344.50
2022-11-08T14:12:12.581Z,100351.53
2022-11-08T14:15:02.129Z,100345.75
2022-11-08T14:17:46.390Z,100342.34
2022-11-08T14:20:37.724Z,100348.09
2022-11-08T14:23:34.923Z,100342.34
2022-11-08T14:26:12.796Z,100345.03
2022-11-08T14:28:45.198Z,100342.63
2022-11-08T14:31:30.646Z,100345.28
2022-11-08T14:34:01.866Z,100341.09
2022-11-08T14:36:34.702Z,100340.56
2022-11-08T14:39:17.817Z,100336.84
2022-11-08T14:41:53.525Z,100326.91
2022-11-08T14:44:29.698Z,100323.47
2022-11-08T14:47:00.634Z,100333.56
2022-11-08T14:49:35.079Z,100327.59
2022-11-08T14:52:20.459Z,100323.13
2022-11-08T14:55:03.055Z,100318.28
2022-11-08T14:57:39.289Z,100324.78
2022-11-08T15:00:28.385Z,100326.25
2022-11-08T15:03:03.422Z,100329.09
2022-11-08T15:05:40.240Z,100323.66
2022-11-08T15:08:25.976Z,100321.47
2022-11-08T15:11:06.865Z,100324.47
2022-11-08T15:13:53.912Z,100319.94
2022-11-08T15:16:24.752Z,100327.13
2022-11-08T15:18:54.798Z,100327.16
2022-11-08T15:21:36.381Z,100321.09
2022-11-08T15:24:16.475Z,100317.38
2022-11-08T15:27:16.970Z,100317.59
2022-11-08T15:30:09.759Z,100308.09
2022-11-08T15:32:43.157Z,100317.72
2022-11-08T15:35:35.048Z,100324.31
2022-11-08T15:38:22.959Z,100328.31
2022-11-08T15:40:55.875Z,100326.84
2022-11-08T15:43:43.430Z,100323.03
2022-11-08T15:46:35.487Z,100313.94
2022-11-08T15:49:05.006Z,100311.41
2022-11-08T15:51:36.041Z,100312.13
2022-11-08T15:54:09.648Z,100311.63
2022-11-08T15:56:41.338Z,100305.13
2022-11-08T15:59:23.570Z,100318.91
2022-11-08T16:02:04.769Z,100312.53
2022-11-08T16:04:33.984Z,100315.72
2022-11-08T16:07:04.987Z,100307.78
2022-11-08T16:09:40.584Z,100299.53
2022-11-08T16:12:16.369Z,100299.16
2022-11-08T16:14:47.236Z,100298.44
2022-11-08T16:17:17.276Z,100298.78
2022-11-08T16:19:46.435Z,100301.00
2022-11-08T16:22:19.228Z,100295.84
2022-11-08T16:24:48.492Z,100299.03
2022-11-08T16:27:21.067Z,100289.16
2022-11-08T16:29:56.755Z,100293.03
2022-11-08T16:32:29.288Z,100296.81
2022-11-08T16:34:58.542Z,100286.44
2022-11-08T16:37:37.591Z,100290.81
2022-11-08T16:40:18.504Z,100278.84
2022-11-08T16:42:51.971Z,100271.63
2022-11-08T16:45:50.444Z,100274.31
2022-11-08T16:48:26.955Z,100280.56
2022-11-08T16:51:03.391Z,100275.91
2022-11-08T16:53:33.120Z,100273.44
2022-11-08T16:56:04.250Z,100267.91
2022-11-08T16:58:34.412Z,100267.75
2022-11-08T17:01:14.915Z,100270.75
2022-11-08T17:03:49.958Z,100264.28
2022-11-08T17:06:25.198Z,100270.88
2022-11-08T17:08:54.610Z,100271.75
2022-11-08T17:11:28.842Z,100271.53
2022-11-08T17:14:03.539Z,100272.38
2022-11-08T17:16:38.959Z,100283.69
2022-11-08T17:19:09.348Z,100283.78
2022-11-08T17:21:45.727Z,100278.41
2022-11-08T17:24:21.776Z,100278.63
2022-11-08T17:26:51.737Z,100276.91
2022-11-08T17:29:21.615Z,100280.63
2022-11-08T17:31:52.338Z,100267.19
2022-11-08T17:34:31.609Z,100263.78
2022-11-08T17:37:01.763Z,100257.88
2022-11-08T17:39:31.028Z,100249.94
2022-11-08T17:42:03.390Z,100254.38
2022-11-08T17:44:35.018Z,100254.84
2022-11-08T17:47:09.890Z,100247.81
2022-11-08T17:49:47.520Z,100255.06
2022-11-08T17:52:20.485Z,100241.41
2022-11-08T17:55:03.109Z,100251.22
2022-11-08T17:57:32.174Z,100230.28
2022-11-08T18:00:02.638Z,100227.44
2022-11-08T18:02:34.844Z,100232.69
2022-11-08T18:05:06.987Z,100246.03
2022-11-08T18:07:36.616Z,100251.72
2022-11-08T18:10:10.282Z,100259.69
2022-11-08T18:12:54.787Z,100245.47
2022-11-08T18:15:26.201Z,100239.50
2022-11-08T18:18:05.738Z,100250.16
2022-11-08T18:20:40.272Z,100238.81
2022-11-08T18:23:12.491Z,100228.28
2022-11-08T18:25:56.473Z,100235.75
2022-11-08T18:28:25.981Z,100236.75
2022-11-08T18:31:06.359Z,100242.84
2022-11-08T18:33:40.755Z,100241.91
2022-11-08T18:36:17.434Z,100254.31
2022-11-08T18:38:48.948Z,100240.00
2022-11-08T18:41:25.427Z,100256.63
2022-11-08T18:44:02.024Z,100250.81
2022-11-08T18:46:43.668Z,100252.56
2022-11-08T18:49:18.402Z,100267.69
2022-11-08T18:51:52.994Z,100258.91
2022-11-08T18:54:23.090Z,100261.59
2022-11-08T18:57:00.637Z,100249.78
2022-11-08T18:59:41.665Z,100260.56
2022-11-08T19:02:12.922Z,100266.94
2022-11-08T19:04:49.119Z,100249.38
2022-11-08T19:07:24.772Z,100244.22
2022-11-08T19:09:54.905Z,100250.16
2022-11-08T19:12:30.674Z,100270.38
2022-11-08T19:15:00.558Z,100267.91
2022-11-08T19:17:32.357Z,100261.97
2022-11-08T19:20:06.008Z,100252.56
2022-11-08T19:22:36.452Z,100260.34
2022-11-08T19:25:09.061Z,100255.19
2022-11-08T19:27:39.508Z,100253.56
2022-11-08T19:30:12.819Z,100261.09
2022-11-08T19:32:41.975Z,100263.97
2022-11-08T19:35:17.773Z,100265.59
2022-11-08T19:37:47.242Z,100263.88
2022-11-08T19:40:16.229Z,100269.88
2022-11-08T19:42:45.690Z,100266.34
2022-11-08T19:45:14.970Z,100264.97
2022-11-08T19:47:47.933Z,100259.72
2022-11-08T19:50:18.811Z,100267.50
2022-11-08T19:52:51.798Z,100267.50
2022-11-08T19:55:21.073Z,100259.72
2022-11-08T19:57:55.667Z,100276.13
2022-11-08T20:00:28.827Z,100273.31
2022-11-08T20:03:01.196Z,100281.00
2022-11-08T20:05:33.623Z,100284.06
2022-11-08T20:08:07.792Z,100281.50
2022-11-08T20:10:37.085Z,100277.09
2022-11-08T20:13:12.975Z,100277.81
2022-11-08T20:15:42.953Z,100284.47
2022-11-08T20:18:15.212Z,100282.88
2022-11-08T20:20:48.773Z,100266.66
2022-11-08T20:23:20.709Z,100278.41
2022-11-08T20:25:49.722Z,100275.34
2022-11-08T20:28:18.912Z,100272.94
2022-11-08T20:30:49.545Z,100283.31
2022-11-08T20:33:25.151Z,100275.84
2022-11-08T20:35:58.442Z,100287.13
2022-11-08T20:38:45.764Z,100290.09
2022-11-08T20:41:25.962Z,100292.72
2022-11-08T20:43:58.401Z,100289.44
2022-11-08T20:46:28.049Z,100294.09
2022-11-08T20:49:01.632Z,100290.09
2022-11-08T20:51:39.437Z,100288.25
2022-11-08T20:54:11.101Z,100279.31
2022-11-08T20:56:45.264Z,100289.69
2022-11-08T20:59:18.765Z,100297.25
2022-11-08T21:01:48.632Z,100289.31
2022-11-08T21:04:18.124Z,100291.53
2022-11-08T21:07:59.237Z,100291.25
2022-11-08T21:10:20.028Z,100295.25
2022-11-08T21:13:02.073Z,100296.97
2022-11-08T21:15:34.753Z,100279.81
2022-11-08T21:18:05.366Z,100292.22
2022-11-08T21:20:37.980Z,100284.97
2022-11-08T21:23:14.469Z,100288.00
2022-11-08T21:25:52.786Z,100297.34
2022-11-08T21:28:27.179Z,100288.00
2022-11-08T21:31:05.343Z,100289.38
2022-11-08T21:33:41.559Z,100280.28
2022-11-08T21:36:13.129Z,100286.28
2022-11-08T21:38:46.387Z,100293.66
2022-11-08T21:41:22.752Z,100300.91
2022-11-08T21:43:53.455Z,100300.47
2022-11-08T21:46:29.220Z,100304.00
2022-11-08T21:49:13.706Z,100303.59
2022-11-08T21:51:44.168Z,100296.34
2022-11-08T21:54:17.874Z,100298.66
2022-11-08T21:56:47.036Z,100300.22
2022-11-08T21:59:16.534Z,100297.22
2022-11-08T22:01:49.552Z,100289.84
2022-11-08T22:04:19.354Z,100291.56
2022-11-08T22:06:54.825Z,100304.19
2022-11-08T22:09:32.820Z,100292.88
2022-11-08T22:12:03.030Z,100292.56
2022-11-08T22:14:34.505Z,100300.56
2022-11-08T22:17:04.166Z,100309.34
2022-11-08T22:19:33.301Z,100299.47
2022-11-08T22:22:02.961Z,100300.69
2022-11-08T22:24:33.946Z,100299.38
2022-11-08T22:27:10.336Z,100300.06
2022-11-08T22:29:42.882Z,100303.06
2022-11-08T22:32:12.434Z,100306.34
2022-11-08T22:34:46.096Z,100304.66
2022-11-08T22:37:15.483Z,100317.44
2022-11-08T22:39:46.468Z,100303.13
2022-11-08T22:42:16.588Z,100313.16
2022-11-08T22:44:50.081Z,100300.16
2022-11-08T22:47:23.930Z,100309.22
2022-11-08T22:49:59.571Z,100303.56
2022-11-08T22:52:34.571Z,100313.50
2022-11-08T22:55:09.793Z,100303.31
2022-11-08T22:57:39.097Z,100300.50
2022-11-08T23:00:16.544Z,100302.75
2022-11-08T23:02:49.243Z,100303.06
2022-11-08T23:05:23.130Z,100306.59
2022-11-08T23:07:53.896Z,100299.69
2022-11-08T23:10:27.707Z,100305.94
2022-11-08T23:13:14.658Z,100303.66
2022-11-08T23:16:06.248Z,100311.31
2022-11-08T23:19:04.809Z,100312.00
2022-11-08T23:21:51.207Z,100314.00
2022-11-08T23:24:23.799Z,100301.38
2022-11-08T23:27:15.923Z,100310.75
2022-11-08T23:30:03.376Z,100313.75
2022-11-08T23:32:35.438Z,100313.06
2022-11-08T23:35:05.040Z,100313.88
2022-11-08T23:37:42.457Z,100320.84
2022-11-08T23:40:35.490Z,100321.81
2022-11-08T23:43:26.210Z,100319.72
2022-11-08T23:45:56.578Z,100312.03
2022-11-08T23:48:26.071Z,100317.81
2022-11-08T23:50:58.777Z,100314.47
2022-11-08T23:53:28.036Z,100307.53
2022-11-08T23:56:09.715Z,100314.44
2022-11-08T23:58:41.969Z,100317.44
